createdAt,value
2022-08-25T00:00:50.002Z,47.08
2022-08-25T00:05:51.528Z,47.03
2022-08-25T00:11:00.152Z,46.90
2022-08-25T00:16:05.316Z,47.05
2022-08-25T00:21:06.939Z,47.67
2022-08-25T00:26:09.751Z,48.08
2022-08-25T00:31:14.551Z,46.92
2022-08-25T00:36:18.237Z,47.79
2022-08-25T00:41:22.506Z,47.33
2022-08-25T00:46:31.587Z,48.90
2022-08-25T00:51:38.790Z,50.15
2022-08-25T00:56:40.864Z,48.68
2022-08-25T01:01:42.576Z,48.23
2022-08-25T01:06:44.999Z,49.00
2022-08-25T01:11:47.469Z,48.18
2022-08-25T01:16:51.104Z,48.79
2022-08-25T01:21:56.291Z,49.75
2022-08-25T01:26:58.347Z,50.47
2022-08-25T01:32:06.181Z,49.56
2022-08-25T01:37:09.540Z,52.62
2022-08-25T01:42:32.914Z,51.28
2022-08-25T01:47:34.519Z,51.25
2022-08-25T01:52:58.397Z,53.70
2022-08-25T01:57:59.859Z,52.21
2022-08-25T02:03:01.387Z,52.05
2022-08-25T02:08:04.197Z,51.22
2022-08-25T02:13:07.151Z,52.40
2022-08-25T02:18:10.664Z,52.39
2022-08-25T02:23:12.271Z,51.36
2022-08-25T02:28:13.899Z,52.96
2022-08-25T02:33:15.382Z,52.26
2022-08-25T02:38:16.886Z,52.56
2022-08-25T02:43:18.310Z,54.84
2022-08-25T02:48:19.879Z,57.79
2022-08-25T02:53:21.602Z,54.45
2022-08-25T02:58:23.671Z,56.58
2022-08-25T03:03:25.268Z,58.50
2022-08-25T03:08:26.771Z,58.76
2022-08-25T03:13:28.211Z,57.59
2022-08-25T03:18:30.177Z,58.93
2022-08-25T03:23:32.241Z,55.21
2022-08-25T03:28:33.908Z,56.81
2022-08-25T03:33:35.617Z,54.69
2022-08-25T03:38:38.160Z,55.02
2022-08-25T03:43:39.859Z,56.65
2022-08-25T03:48:41.296Z,54.04
2022-08-25T03:53:42.723Z,54.31
2022-08-25T03:58:44.581Z,56.41
2022-08-25T04:03:47.025Z,55.25
2022-08-25T04:08:48.805Z,59.38
2022-08-25T04:13:51.893Z,59.33
2022-08-25T04:18:56.739Z,54.21
2022-08-25T04:23:58.239Z,54.37
2022-08-25T04:29:01.163Z,55.29
2022-08-25T04:34:04.701Z,54.99
2022-08-25T04:39:20.150Z,55.79
2022-08-25T04:44:21.683Z,59.29
2022-08-25T04:49:23.283Z,57.23
2022-08-25T04:54:25.076Z,59.23
2022-08-25T04:59:29.403Z,55.42
2022-08-25T05:04:35.237Z,56.27
2022-08-25T05:09:37.765Z,58.57
2022-08-25T05:14:39.485Z,60.14
2022-08-25T05:19:40.926Z,56.13
2022-08-25T05:24:42.365Z,56.12
2022-08-25T05:29:43.773Z,56.10
2022-08-25T05:34:45.297Z,55.82
2022-08-25T05:39:46.717Z,57.48
2022-08-25T05:44:48.496Z,56.42
2022-08-25T05:49:49.903Z,57.61
2022-08-25T05:54:51.365Z,58.77
2022-08-25T05:59:52.790Z,56.88
2022-08-25T06:04:54.193Z,58.15
2022-08-25T06:09:55.770Z,56.59
2022-08-25T06:14:57.237Z,57.27
2022-08-25T06:19:58.663Z,56.88
2022-08-25T06:25:00.152Z,57.64
2022-08-25T06:30:07.975Z,56.35
2022-08-25T06:35:12.961Z,58.83
2022-08-25T06:40:16.302Z,55.67
2022-08-25T06:45:18.640Z,56.55
2022-08-25T06:50:20.224Z,56.69
2022-08-25T06:55:21.729Z,56.01
2022-08-25T07:00:23.208Z,56.78
2022-08-25T07:05:43.586Z,55.76
2022-08-25T07:10:48.064Z,56.14
2022-08-25T07:15:54.226Z,55.94
2022-08-25T07:20:56.798Z,55.56
2022-08-25T07:26:37.290Z,54.87
2022-08-25T07:31:39.930Z,53.93
2022-08-25T07:36:41.762Z,53.08
2022-08-25T07:41:43.758Z,53.67
2022-08-25T07:46:45.311Z,53.23
2022-08-25T07:52:03.902Z,52.66
2022-08-25T07:57:08.134Z,52.00
2022-08-25T08:02:18.677Z,51.78
2022-08-25T08:07:23.652Z,51.76
2022-08-25T08:12:36.467Z,52.99
2022-08-25T08:17:39.549Z,51.69
2022-08-25T08:22:43.354Z,50.17
2022-08-25T08:27:46.142Z,50.01
2022-08-25T08:33:08.628Z,49.15
2022-08-25T08:38:17.212Z,51.54
2022-08-25T08:43:25.115Z,47.01
2022-08-25T08:48:44.343Z,48.14
2022-08-25T08:54:15.403Z,47.44
2022-08-25T08:59:33.378Z,47.49
2022-08-25T09:04:46.944Z,50.14
2022-08-25T09:09:48.773Z,47.09
2022-08-25T09:15:02.511Z,46.20
2022-08-25T09:20:46.868Z,48.09
2022-08-25T09:26:03.150Z,47.04
2022-08-25T09:31:20.955Z,44.31
2022-08-25T09:36:23.603Z,44.61
2022-08-25T09:41:42.511Z,43.10
2022-08-25T09:47:05.514Z,44.62
2022-08-25T09:52:28.394Z,46.05
2022-08-25T09:57:34.954Z,43.71
2022-08-25T10:02:36.426Z,45.77
2022-08-25T10:07:51.902Z,46.57
2022-08-25T10:12:54.873Z,46.99
2022-08-25T10:18:24.231Z,43.57
2022-08-25T10:23:27.969Z,44.18
2022-08-25T10:28:52.368Z,46.04
2022-08-25T10:34:12.425Z,43.88
2022-08-25T10:39:37.074Z,44.36
2022-08-25T10:45:21.955Z,42.88
2022-08-25T10:50:33.471Z,41.35
2022-08-25T10:55:43.748Z,43.18
2022-08-25T11:00:59.279Z,41.75
2022-08-25T11:06:12.315Z,41.62
2022-08-25T11:11:37.518Z,45.15
2022-08-25T11:16:45.224Z,43.21
2022-08-25T11:22:20.929Z,44.31
2022-08-25T11:27:26.567Z,44.12
2022-08-25T11:32:33.301Z,45.33
2022-08-25T11:37:43.897Z,44.22
2022-08-25T11:43:00.301Z,43.10
2022-08-25T11:48:16.719Z,41.54
2022-08-25T11:53:28.105Z,43.71
2022-08-25T11:58:36.733Z,43.75
2022-08-25T12:03:38.423Z,41.62
2022-08-25T12:09:00.018Z,42.00
2022-08-25T12:14:28.486Z,42.16
2022-08-25T12:19:32.678Z,41.45
2022-08-25T12:24:36.958Z,42.36
2022-08-25T12:29:51.797Z,43.51
2022-08-25T12:35:27.188Z,41.91
2022-08-25T12:40:34.392Z,43.72
2022-08-25T12:45:38.615Z,44.40
2022-08-25T12:50:43.534Z,40.86
2022-08-25T12:55:52.213Z,41.41
2022-08-25T13:01:22.639Z,43.35
2022-08-25T13:06:48.258Z,41.96
2022-08-25T13:12:14.219Z,40.86
2022-08-25T13:17:30.255Z,42.93
2022-08-25T13:22:35.747Z,43.11
2022-08-25T13:27:37.431Z,42.79
2022-08-25T13:32:38.945Z,41.30
2022-08-25T13:37:41.241Z,41.70
2022-08-25T13:42:50.878Z,43.18
2022-08-25T13:47:56.399Z,42.57
2022-08-25T13:53:05.968Z,42.47
2022-08-25T13:58:14.924Z,42.03
2022-08-25T14:03:31.320Z,40.17
2022-08-25T14:08:39.099Z,38.03
2022-08-25T14:13:44.587Z,40.83
2022-08-25T14:18:51.983Z,37.80
2022-08-25T14:23:55.464Z,40.95
2022-08-25T14:28:57.446Z,39.97
2022-08-25T14:34:05.983Z,41.07
2022-08-25T14:39:08.670Z,42.07
2022-08-25T14:44:10.884Z,41.25
2022-08-25T14:49:24.931Z,40.53
2022-08-25T14:54:27.952Z,36.61
2022-08-25T14:59:31.478Z,39.00
2022-08-25T15:04:32.926Z,39.58
2022-08-25T15:09:34.418Z,40.73
2022-08-25T15:14:36.066Z,37.51
2022-08-25T15:19:37.609Z,40.75
2022-08-25T15:24:39.112Z,38.12
2022-08-25T15:29:41.663Z,38.51
2022-08-25T15:34:43.200Z,39.11
2022-08-25T15:39:46.587Z,41.14
2022-08-25T15:44:53.249Z,39.62
2022-08-25T15:50:04.464Z,35.82
2022-08-25T15:55:07.060Z,35.44
2022-08-25T16:00:13.703Z,36.60
2022-08-25T16:05:20.433Z,40.78
2022-08-25T16:10:27.425Z,41.10
2022-08-25T16:15:29.116Z,37.47
2022-08-25T16:20:33.292Z,40.15
2022-08-25T16:25:40.268Z,39.70
2022-08-25T16:30:52.816Z,38.16
2022-08-25T16:36:08.441Z,39.48
2022-08-25T16:41:16.088Z,39.36
2022-08-25T16:46:20.619Z,35.97
2022-08-25T16:51:25.628Z,36.63
2022-08-25T16:56:34.333Z,37.36
2022-08-25T17:01:36.675Z,37.71
2022-08-25T17:06:41.383Z,38.06
2022-08-25T17:11:54.145Z,38.60
2022-08-25T17:16:56.249Z,37.86
2022-08-25T17:21:58.474Z,37.48
2022-08-25T17:27:02.038Z,41.31
2022-08-25T17:32:04.585Z,40.42
2022-08-25T17:37:06.669Z,38.34
2022-08-25T17:42:08.181Z,39.55
2022-08-25T17:47:10.846Z,41.30
2022-08-25T17:52:13.100Z,39.76
2022-08-25T17:57:16.134Z,41.08
2022-08-25T18:02:17.584Z,41.20
2022-08-25T18:07:19.030Z,38.88
2022-08-25T18:12:20.433Z,41.23
2022-08-25T18:17:23.069Z,41.54
2022-08-25T18:22:24.513Z,41.21
2022-08-25T18:27:26.744Z,39.49
2022-08-25T18:32:29.287Z,41.66
2022-08-25T18:37:49.402Z,40.31
2022-08-25T18:43:00.250Z,40.67
2022-08-25T18:48:02.420Z,41.63
2022-08-25T18:53:04.141Z,41.52
2022-08-25T18:58:08.072Z,41.60
2022-08-25T19:03:12.157Z,41.84
2022-08-25T19:08:18.452Z,41.82
2022-08-25T19:13:23.269Z,42.05
2022-08-25T19:18:25.885Z,42.63
2022-08-25T19:23:31.003Z,43.44
2022-08-25T19:28:33.298Z,43.05
2022-08-25T19:33:43.989Z,43.35
2022-08-25T19:38:47.096Z,43.02
2022-08-25T19:43:56.185Z,43.07
2022-08-25T19:48:59.960Z,43.76
2022-08-25T19:54:03.323Z,43.58
2022-08-25T19:59:04.897Z,43.44
2022-08-25T20:04:06.373Z,45.39
2022-08-25T20:09:09.030Z,44.10
2022-08-25T20:14:32.550Z,44.44
2022-08-25T20:19:34.019Z,44.70
2022-08-25T20:24:55.770Z,45.23
2022-08-25T20:29:57.957Z,45.00
2022-08-25T20:35:00.930Z,45.00
2022-08-25T20:40:02.540Z,46.54
2022-08-25T20:45:06.086Z,44.81
2022-08-25T20:50:07.952Z,45.15
2022-08-25T20:55:09.836Z,45.08
2022-08-25T21:00:12.705Z,45.57
2022-08-25T21:05:14.355Z,45.36
2022-08-25T21:10:16.120Z,46.33
2022-08-25T21:15:18.293Z,48.82
2022-08-25T21:20:21.599Z,47.23
2022-08-25T21:25:23.129Z,46.81
2022-08-25T21:30:24.715Z,49.81
2022-08-25T21:35:27.642Z,51.17
2022-08-25T21:40:35.338Z,49.15
2022-08-25T21:45:46.372Z,47.80
2022-08-25T21:50:48.331Z,52.02
2022-08-25T21:55:50.235Z,49.08
2022-08-25T22:00:51.674Z,48.61
2022-08-25T22:05:54.903Z,51.44
2022-08-25T22:10:56.370Z,50.46
2022-08-25T22:15:58.152Z,53.80
2022-08-25T22:20:59.594Z,53.24
2022-08-25T22:26:08.871Z,52.03
2022-08-25T22:31:10.534Z,54.27
2022-08-25T22:36:16.027Z,54.07
2022-08-25T22:41:21.507Z,56.41
2022-08-25T22:46:25.269Z,51.93
2022-08-25T22:51:31.415Z,56.65
2022-08-25T22:56:35.678Z,52.87
2022-08-25T23:01:39.702Z,53.79
2022-08-25T23:06:42.341Z,55.18
2022-08-25T23:11:43.946Z,54.91
2022-08-25T23:16:45.535Z,55.47
2022-08-25T23:22:05.434Z,54.69
2022-08-25T23:27:08.864Z,54.69
2022-08-25T23:32:13.991Z,58.79
2022-08-25T23:37:18.507Z,56.51
2022-08-25T23:42:20.515Z,55.52
2022-08-25T23:47:22.250Z,54.93
2022-08-25T23:52:24.204Z,59.68
2022-08-25T23:57:26.428Z,57.21
